• Join FlightAware (Why Join?)
  • Login
  • US Flag 
04:57AM EDT


 

Airport Tracker/Info


-or-


 

Live Flight TrackerFlight Track Log ✈ N892PB ✈ 17-Apr-2014 ✈ KTMB - SVCS

Flight Track Log - Related Links

Times and Time Zones

All times are in EDT time to prevent confusion due to time zone crossing. See the N892PB flight status page for this flight to view local times or setup timezone preferences in your user account.

Time Position Orientation Groundspeed Altitude Reporting Facility
EDT Latitude Longitude Course Direction KTS MPH feet Rate Location/Type
01:16PM 25.6547 -80.3303 87° East 230 265 2,000  Level Miami Center
01:17PM 25.6586 -80.2589 87° East 192 221 3,100 540 Climbing Miami Center
01:18PM 25.6606 -80.1739 89° East 243 280 3,300 360 Climbing Miami Center
01:19PM 25.6556 -80.1136 95° East 239 275 3,900 780 Climbing Miami Center
01:20PM 25.6550 -80.0492 91° East 247 284 4,700 1,260 Climbing Miami Center
01:21PM 25.6519 -79.9914 93° East 240 276 6,300 1,380 Climbing Miami Center
01:22PM 25.6472 -79.9200 94° East 210 242 7,500 1,080 Climbing Miami Center
01:23PM 25.6317 -79.8642 107° East 204 235 8,500 1,080 Climbing Miami Center
01:24PM 25.6058 -79.7992 114° Southeast 209 241 9,700 1,560 Climbing Miami Center
01:25PM 25.5817 -79.7525 120° Southeast 204 235 11,700 2,040 Climbing Miami Center
01:26PM 25.5578 -79.6967 115° Southeast 199 229 13,800 1,740 Climbing Miami Center
01:27PM 25.5378 -79.6456 113° Southeast 192 221 15,200 1,380 Climbing Miami Center
01:28PM 25.5119 -79.5781 113° Southeast 207 238 16,600 1,320 Climbing Miami Center
01:29PM 25.4881 -79.5131 112° Southeast 231 266 17,900 1,620 Climbing Miami Center
01:30PM 25.4600 -79.4364 112° Southeast 244 281 19,900 1,800 Climbing Miami Center
01:31PM 25.4467 -79.3694 102° East 234 269 21,500 1,200 Climbing Miami Center
01:32PM 25.4228 -79.3022 111° Southeast 229 264 22,400 960 Climbing Miami Center
01:33PM 25.3967 -79.2328 113° Southeast 234 269 23,500 1,140 Climbing Miami Center
01:34PM 25.3706 -79.1633 113° Southeast 239 275 24,700 960 Climbing Miami Center
01:35PM 25.3403 -79.0961 116° Southeast 239 275 25,500 780 Climbing Miami Center
01:36PM 25.3036 -79.0242 119° Southeast 251 289 26,300 720 Climbing Miami Center
01:37PM 25.2650 -78.9500 120° Southeast 257 296 27,000 300 Climbing Miami Center
01:38PM 25.2267 -78.8642 116° Southeast 281 323 27,000  Level Miami Center
01:39PM 25.1881 -78.7719 115° Southeast 309 356 27,000  Level Miami Center
01:40PM 25.1581 -78.6725 108° East 335 386 27,000  Level Miami Center
01:41PM 25.1217 -78.5756 113° Southeast 341 392 27,000  Level Miami Center
01:42PM 25.0808 -78.4811 116° Southeast 341 392 27,000 -60 Level Miami Center
01:43PM 25.0422 -78.3889 115° Southeast 336 387 26,900  Descending Miami Center
01:44PM 24.9992 -78.2989 118° Southeast 336 387 27,000  Climbing Miami Center
01:45PM 24.9581 -78.2111 117° Southeast 327 376 27,000  Level Miami Center
01:46PM 24.9108 -78.1283 122° Southeast 322 371 27,000  Level Miami Center
01:47PM 24.8614 -78.0453 123° Southeast 322 371 27,000  Level Miami Center
01:48PM 24.8075 -77.9669 127° Southeast 322 371 27,000  Level Miami Center
01:49PM 24.7539 -77.8908 128° Southeast 317 365 27,000  Level Miami Center
01:50PM 24.6958 -77.8172 131° Southeast 317 365 27,000  Level Miami Center
01:51PM 24.6419 -77.7436 129° Southeast 317 365 27,000  Level Miami Center
01:52PM 24.5817 -77.6725 133° Southeast 312 359 27,000  Level Miami Center
01:53PM 24.5236 -77.6011 132° Southeast 312 359 27,000  Level Miami Center
01:54PM 24.4633 -77.5347 135° Southeast 312 359 27,000  Level Miami Center
01:55PM 24.3986 -77.4728 139° Southeast 312 359 27,000  Level Miami Center
01:56PM 24.3319 -77.4131 141° Southeast 312 359 27,000  Level Miami Center
01:57PM 24.2675 -77.3536 140° Southeast 312 359 27,000  Level Miami Center
01:58PM 24.1986 -77.2942 142° Southeast 306 352 27,000  Level Miami Center
01:59PM 24.1425 -77.2392 138° Southeast 306 352 27,000  Level Miami Center
02:00PM 24.0778 -77.1797 140° Southeast 306 352 27,000  Level Miami Center
02:01PM 24.0153 -77.1181 138° Southeast 306 352 27,000  Level Miami Center
02:02PM 23.9547 -77.0500 134° Southeast 306 352 27,000  Level Miami Center
02:03PM 23.8983 -76.9794 131° Southeast 306 352 27,000  Level Miami Center
02:04PM 23.8378 -76.8997 130° Southeast 312 359 27,000  Level Miami Center
02:05PM 23.7792 -76.8294 132° Southeast 312 359 27,000  Level Miami Center
02:06PM 23.7208 -76.7614 133° Southeast 312 359 27,000  Level Miami Center
02:07PM 23.6600 -76.6978 136° Southeast 312 359 27,000  Level Miami Center
02:08PM 23.5953 -76.6322 137° Southeast 307 353 27,000  Level Miami Center
02:09PM 23.5344 -76.5642 134° Southeast 307 353 27,000  Level Miami Center
02:10PM 23.4717 -76.4964 135° Southeast 307 353 27,000  Level Miami Center
02:11PM 23.4108 -76.4308 135° Southeast 307 353 27,000  Level Miami Center
02:12PM 23.3478 -76.3611 135° Southeast 307 353 27,000  Level Miami Center
02:13PM 23.2869 -76.2956 135° Southeast 307 353 27,000  Level Miami Center
02:14PM 23.2261 -76.2281 134° Southeast 307 353 27,000  Level Miami Center
02:15PM 23.1633 -76.1583 134° Southeast 307 353 27,000  Level Miami Center
02:16PM 23.1044 -76.0886 133° Southeast 307 353 27,000  Level Miami Center
02:17PM 23.0414 -76.0214 136° Southeast 307 353 27,000  Level Miami Center
02:18PM 22.9803 -75.9542 135° Southeast 307 353 27,000  Level Miami Center
02:19PM 22.9192 -75.8844 134° Southeast 307 353 27,000  Level Miami Center
02:20PM 22.8583 -75.8175 135° Southeast 307 353 27,000  Level Miami Center
02:21PM 22.7972 -75.7503 135° Southeast 307 353 27,000  Level Miami Center
02:22PM 22.7339 -75.6811 135° Southeast 307 353 27,000  Level Miami Center
02:23PM 22.6728 -75.6117 134° Southeast 307 353 27,000  Level Miami Center
02:24PM 22.6117 -75.5447 135° Southeast 307 353 27,000  Level Miami Center
02:25PM 22.5506 -75.4758 134° Southeast 307 353 27,000  Level Miami Center
02:26PM 22.4892 -75.4089 135° Southeast 307 353 27,000  Level Miami Center
02:27PM 22.4281 -75.3400 134° Southeast 307 353 27,000  Level Miami Center
02:28PM 22.3689 -75.2711 133° Southeast 307 353 27,000  Level Miami Center
02:29PM 22.3075 -75.2022 134° Southeast 307 353 27,000  Level Miami Center
02:30PM 22.2461 -75.1381 136° Southeast 307 353 27,000  Level Miami Center
02:31PM 22.1847 -75.0692 134° Southeast 307 353 27,000  Level Miami Center
02:32PM 22.1192 -75.0072 139° Southeast 307 353 27,000  Level Miami Center
02:33PM 22.0539 -74.9456 139° Southeast 312 359 27,000  Level Miami Center
02:34PM 21.9883 -74.8839 139° Southeast 318 366 27,000  Level Miami Center
02:35PM 21.9228 -74.8222 139° Southeast 318 366 27,000  Level Miami Center
02:36PM 21.8572 -74.7606 139° Southeast 313 360 27,000  Level Miami Center
02:37PM 21.7875 -74.7033 143° Southeast 313 360 27,000  Level Miami Center
02:38PM 21.7281 -74.6486 139° Southeast 313 360 27,000  Level Miami Center
02:39PM 21.6647 -74.5892 139° Southeast 313 360 27,000  Level Miami Center
02:40PM 21.5989 -74.5278 139° Southeast 308 354 27,000  Level Miami Center
02:41PM 21.5333 -74.4686 140° Southeast 308 354 27,000  Level Miami Center
02:42PM 21.4678 -74.4075 139° Southeast 308 354 27,000  Level Miami Center
02:43PM 21.3997 -74.3464 140° Southeast 308 354 27,000  Level Miami Center
02:44PM 21.3342 -74.2875 140° Southeast 308 354 27,000  Level Miami Center
02:45PM 21.2683 -74.2261 139° Southeast 308 354 27,000  Level Miami Center
02:46PM 21.2028 -74.1675 140° Southeast 308 354 27,000  Level Miami Center
02:47PM 21.1347 -74.1064 140° Southeast 308 354 27,000  Level Miami Center
02:48PM 21.0711 -74.0456 138° Southeast 308 354 27,000  Level Miami Center
02:49PM 21.0053 -73.9892 141° Southeast 308 354 27,000  Level Miami Center
02:50PM 20.9331 -73.9261 141° Southeast 303 349 27,000  Level Miami Center
02:51PM 20.8672 -73.8656 139° Southeast 313 360 27,000  Level Miami Center
02:52PM 20.8014 -73.8092 141° Southeast 308 354 27,000  Level Miami Center
02:53PM 20.7356 -73.7486 139° Southeast 308 354 27,000  Level Miami Center
02:54PM 20.6697 -73.6881 139° Southeast 308 354 27,000  Level Miami Center
02:55PM 20.6017 -73.6275 140° Southeast 308 354 27,000  Level Miami Center
02:56PM 20.5336 -73.5694 141° Southeast 308 354 27,000  Level Miami Center
02:57PM 20.4697 -73.5111 139° Southeast 308 354 27,000  Level Miami Center
02:58PM 20.4039 -73.4531 140° Southeast 308 354 27,000  Level Miami Center
02:59PM 20.3381 -73.3950 140° Southeast 308 354 27,000  Level Miami Center
03:00PM 20.2719 -73.3369 141° Southeast 308 354 27,000  Level Miami Center
03:01PM 20.2081 -73.2789 140° Southeast 308 354 27,000  Level Miami Center
03:02PM 20.1419 -73.2186 139° Southeast 308 354 27,000  Level Miami Center
03:03PM 20.0700 -73.1742 150° Southeast 308 354 27,000  Level Miami Center
03:05PM 19.9574 -73.1094 152° Southeast  Level FlightAware Approximate
03:12PM 19.4286 -72.8144 153° Southeast  Level FlightAware Approximate
03:13PM 19.3528 -72.7729 153° Southeast  Level FlightAware Approximate
03:14PM 19.2769 -72.7314 153° Southeast  Level FlightAware Approximate
03:15PM 19.2011 -72.6900 153° Southeast  Level FlightAware Approximate
03:16PM 19.1253 -72.6486 153° Southeast  Level FlightAware Approximate
03:17PM 19.0495 -72.6070 152° Southeast  Level FlightAware Approximate
03:18PM 18.9741 -72.5647 152° Southeast  Level FlightAware Approximate
03:19PM 18.8988 -72.5225 152° Southeast  Level FlightAware Approximate
03:20PM 18.8234 -72.4802 152° Southeast  Level FlightAware Approximate
03:21PM 18.7479 -72.4381 152° Southeast  Level FlightAware Approximate
03:22PM 18.6725 -72.3959 152° Southeast  Level FlightAware Approximate
03:23PM 18.5967 -72.3546 153° Southeast  Level FlightAware Approximate
03:24PM 18.5207 -72.3137 153° Southeast  Level FlightAware Approximate
03:25PM 18.4447 -72.2728 153° Southeast  Level FlightAware Approximate
03:26PM 18.3720 -72.2257 148° Southeast  Level FlightAware Approximate
03:27PM 18.3000 -72.1777 148° Southeast  Level FlightAware Approximate
03:28PM 18.2279 -72.1296 148° Southeast  Level FlightAware Approximate
03:29PM 18.1557 -72.0816 148° Southeast  Level FlightAware Approximate
03:30PM 18.0819 -72.0366 151° Southeast  Level FlightAware Approximate
03:31PM 18.0073 -71.9931 151° Southeast  Level FlightAware Approximate
03:32PM 17.9327 -71.9496 149° Southeast  Level FlightAware Approximate
03:33PM 17.8597 -71.9031 149° Southeast  Level FlightAware Approximate
03:34PM 17.7868 -71.8566 149° Southeast  Level FlightAware Approximate
03:35PM 17.7138 -71.8102 149° Southeast  Level FlightAware Approximate
03:36PM 17.6408 -71.7638 149° Southeast  Level FlightAware Approximate
03:37PM 17.5678 -71.7174 149° Southeast  Level FlightAware Approximate
03:38PM 17.4973 -71.6679 150° Southeast  Level FlightAware Approximate
03:39PM 17.4235 -71.6229 150° Southeast  Level FlightAware Approximate
03:40PM 17.3498 -71.5780 150° Southeast  Level FlightAware Approximate
03:41PM 17.2760 -71.5331 150° Southeast  Level FlightAware Approximate
03:42PM 17.2022 -71.4882 150° Southeast  Level FlightAware Approximate
03:43PM 17.1287 -71.4429 149° Southeast  Level FlightAware Approximate
03:44PM 17.0554 -71.3971 149° Southeast  Level FlightAware Approximate
03:45PM 16.9822 -71.3513 149° Southeast  Level FlightAware Approximate
03:46PM 16.9089 -71.3056 149° Southeast  Level FlightAware Approximate
03:47PM 16.8354 -71.2603 150° Southeast  Level FlightAware Approximate
03:48PM 16.7618 -71.2152 150° Southeast  Level FlightAware Approximate
03:49PM 16.6882 -71.1701 150° Southeast  Level FlightAware Approximate
03:50PM 16.6147 -71.1250 150° Southeast  Level FlightAware Approximate
03:51PM 16.5411 -71.0799 150° Southeast  Level FlightAware Approximate
03:52PM 16.4674 -71.0349 150° Southeast  Level FlightAware Approximate
03:53PM 16.3938 -70.9899 150° Southeast  Level FlightAware Approximate
03:54PM 16.3202 -70.9450 150° Southeast  Level FlightAware Approximate
03:55PM 16.2466 -70.9001 150° Southeast  Level FlightAware Approximate
03:56PM 16.1729 -70.8552 150° Southeast  Level FlightAware Approximate
03:57PM 16.0993 -70.8104 150° Southeast  Level FlightAware Approximate
03:58PM 16.0256 -70.7655 150° Southeast  Level FlightAware Approximate
03:59PM 15.9493 -70.7259 155° Southeast  Level FlightAware Approximate
04:00PM 15.8717 -70.6891 155° Southeast  Level FlightAware Approximate
04:01PM 15.7941 -70.6523 155° Southeast  Level FlightAware Approximate
04:02PM 15.7164 -70.6155 155° Southeast  Level FlightAware Approximate
04:03PM 15.6388 -70.5787 155° Southeast  Level FlightAware Approximate
04:04PM 15.5611 -70.5420 156° South  Level FlightAware Approximate
04:05PM 15.4835 -70.5053 156° South  Level FlightAware Approximate
04:06PM 15.4058 -70.4686 156° South  Level FlightAware Approximate
04:07PM 15.3282 -70.4320 156° South  Level FlightAware Approximate
04:08PM 15.2505 -70.3954 156° South  Level FlightAware Approximate
04:09PM 15.1728 -70.3588 156° South  Level FlightAware Approximate
04:10PM 15.0951 -70.3222 156° South  Level FlightAware Approximate
04:11PM 15.0170 -70.2866 156° South  Level FlightAware Approximate
04:12PM 14.9389 -70.2511 156° South  Level FlightAware Approximate
04:13PM 14.8607 -70.2157 156° South  Level FlightAware Approximate
04:14PM 14.7825 -70.1803 156° South  Level FlightAware Approximate
04:15PM 14.7044 -70.1450 156° South  Level FlightAware Approximate
04:16PM 14.6262 -70.1096 156° South  Level FlightAware Approximate
04:17PM 14.5480 -70.0743 156° South  Level FlightAware Approximate
04:18PM 14.4698 -70.0390 156° South  Level FlightAware Approximate
04:19PM 14.3916 -70.0037 156° South  Level FlightAware Approximate
04:20PM 14.3137 -69.9680 156° South  Level FlightAware Approximate
04:21PM 14.2357 -69.9322 156° South  Level FlightAware Approximate
04:22PM 14.1577 -69.8964 156° South  Level FlightAware Approximate
04:23PM 14.0798 -69.8606 156° South  Level FlightAware Approximate
04:24PM 14.0018 -69.8249 156° South  Level FlightAware Approximate
04:25PM 13.9238 -69.7892 156° South  Level FlightAware Approximate
04:26PM 13.8458 -69.7535 156° South  Level FlightAware Approximate
04:27PM 13.7678 -69.7179 156° South  Level FlightAware Approximate
04:28PM 13.6898 -69.6823 156° South  Level FlightAware Approximate
04:29PM 13.6118 -69.6466 156° South  Level FlightAware Approximate
04:30PM 13.5338 -69.6111 156° South  Level FlightAware Approximate
04:31PM 13.4558 -69.5755 156° South  Level FlightAware Approximate
04:32PM 13.3778 -69.5400 156° South  Level FlightAware Approximate
04:33PM 13.2998 -69.5044 156° South  Level FlightAware Approximate
04:34PM 13.2218 -69.4689 156° South  Level FlightAware Approximate
04:35PM 13.1438 -69.4335 156° South  Level FlightAware Approximate
04:36PM 13.0657 -69.3980 156° South  Level FlightAware Approximate
04:37PM 12.9876 -69.3628 156° South  Level FlightAware Approximate
04:38PM 12.9094 -69.3277 156° South  Level FlightAware Approximate
04:39PM 12.8313 -69.2926 156° South  Level FlightAware Approximate
04:40PM 12.7531 -69.2576 156° South  Level FlightAware Approximate
04:41PM 12.6749 -69.2226 156° South  Level FlightAware Approximate
04:42PM 12.5967 -69.1876 156° South  Level FlightAware Approximate
04:43PM 12.5186 -69.1524 156° South  Level FlightAware Approximate
04:44PM 12.4406 -69.1169 156° South  Level FlightAware Approximate
04:45PM 12.3626 -69.0814 156° South  Level FlightAware Approximate
04:46PM 12.2846 -69.0460 156° South  Level FlightAware Approximate
04:47PM 12.2066 -69.0106 156° South  Level FlightAware Approximate
04:48PM 12.1445 -68.9534 130° Southeast  Level FlightAware Approximate
04:49PM 12.0891 -68.8870 130° Southeast  Level FlightAware Approximate
04:50PM 12.0337 -68.8206 130° Southeast  Level FlightAware Approximate
04:51PM 11.9783 -68.7543 130° Southeast  Level FlightAware Approximate
04:52PM 11.9229 -68.6880 130° Southeast  Level FlightAware Approximate
04:53PM 11.8675 -68.6217 131° Southeast  Level FlightAware Approximate
04:54PM 11.8120 -68.5554 131° Southeast  Level FlightAware Approximate
04:55PM 11.7566 -68.4892 131° Southeast  Level FlightAware Approximate
04:56PM 11.7011 -68.4230 131° Southeast  Level FlightAware Approximate
04:57PM 11.6456 -68.3568 131° Southeast  Level FlightAware Approximate
04:58PM 11.5901 -68.2906 131° Southeast  Level FlightAware Approximate
04:59PM 11.5346 -68.2245 131° Southeast  Level FlightAware Approximate
05:00PM 11.4782 -68.1591 133° Southeast  Level FlightAware Approximate
05:01PM 11.4205 -68.0950 133° Southeast  Level FlightAware Approximate
05:02PM 11.3628 -68.0309 133° Southeast  Level FlightAware Approximate
05:03PM 11.3063 -67.9657 131° Southeast  Level FlightAware Approximate
05:04PM 11.2501 -67.9001 131° Southeast  Level FlightAware Approximate
05:05PM 11.1919 -67.8366 133° Southeast  Level FlightAware Approximate
05:06PM 11.1336 -67.7730 133° Southeast  Level FlightAware Approximate
05:07PM 11.0754 -67.7095 133° Southeast  Level FlightAware Approximate
05:08PM 11.0194 -67.6438 131° Southeast  Level FlightAware Approximate
05:09PM 10.9639 -67.5779 131° Southeast  Level FlightAware Approximate
05:10PM 10.9083 -67.5119 131° Southeast  Level FlightAware Approximate
05:11PM 10.8528 -67.4459 131° Southeast  Level FlightAware Approximate
05:12PM 10.7971 -67.3801 132° Southeast  Level FlightAware Approximate
05:13PM 10.7404 -67.3152 132° Southeast  Level FlightAware Approximate
05:14PM 10.6836 -67.2504 132° Southeast  Level FlightAware Approximate
05:15PM 10.6298 -67.1830 129° Southeast  Level FlightAware Approximate
05:16PM 10.5759 -67.1157 129° Southeast  Level FlightAware Approximate
05:17PM 10.5184 -67.0517 135° Southeast  Level FlightAware Approximate
05:18PM 10.4576 -66.9909 135° Southeast  Level FlightAware Approximate
05:19PM 10.4084 -66.9251 135° Southeast  Level FlightAware Approximate
05:20PM 10.3500 -66.9444 127° Southeast  Level Estimated
05:21PM 10.3500 -66.9444 135° Southeast  Level Estimated
05:22PM 10.3500 -66.9444 135° Southeast  Level Estimated
05:23PM 10.3500 -66.9444 270° West  Level Estimated
05:24PM 10.3500 -66.9444 135° Southeast  Level Estimated
05:25PM 10.3500 -66.9444 270° West  Level Estimated
05:26PM 10.3500 -66.9444 270° West  Level Estimated
05:27PM 10.3500 -66.9444 135° Southeast  Level Estimated
05:28PM 10.3500 -66.9444 270° West  Level Estimated
05:29PM 10.3500 -66.9444 270° West  Level Estimated
05:30PM 10.3500 -66.9444 135° Southeast  Level Estimated
05:31PM 10.3500 -66.9444 270° West  Level Estimated
05:32PM 10.3500 -66.9444 270° West  Level Estimated
05:33PM 10.3500 -66.9444 135° Southeast  Level Estimated
05:34PM 10.3500 -66.9444 270° West  Level Estimated